CW2798 Aduanas ES current weather conditions

sailwx.info

Wind from 276 at 7 knots gusting 14

Air temperature 20.6° C
Dewpoint 8.8° C

Last reported at 2015-Jan-30 09:31 UTC.
Time now 2015-Jan-30 11:02 UTC

Location: N 38°48' E 000°11'.
View on Google Maps.

See reports from other nearby stations

  
Tides and Currents Weather Stations Pressure Air Temp Water Temp Dewpoint Dewpoint Depression Visibility Wind Speed Wind Dir Waves Ship Positions
date/time (UTC)wind fromknots sea level pressurealtimeterstation pressurevisibilityair tempwater tempwave heightnotes
2015-Jan-30 09:31 276 7 gusting 14 20.6
2015-Jan-30 09:01 304 7 gusting 20 20.0
2015-Jan-30 08:46 296 7 gusting 19 19.4
2015-Jan-30 08:31 290 7 gusting 15 19.4
2015-Jan-30 08:16 291 9 gusting 22 19.4
2015-Jan-30 06:46 285 9 gusting 19 18.3
2015-Jan-30 06:31 303 9 gusting 13 18.3
2015-Jan-30 06:16 301 13 gusting 18 18.9
2015-Jan-30 06:01 303 13 gusting 27 18.9
2015-Jan-30 05:46 302 13 gusting 19 18.9
2015-Jan-30 05:16 294 13 gusting 27 19.4
2015-Jan-30 04:46 287 10 gusting 16 19.4
2015-Jan-30 04:16 293 4 gusting 10 18.9
2015-Jan-30 03:46 288 11 gusting 20 19.4
2015-Jan-30 03:31 272 2 gusting 6 17.8
2015-Jan-30 03:01 261 4 gusting 10 17.8
2015-Jan-30 02:46 261 2 gusting 8 17.8
2015-Jan-30 02:31 257 3 gusting 8 17.2
2015-Jan-30 02:16 255 2 gusting 5 17.2
2015-Jan-30 02:01 257 5 gusting 8 17.2
2015-Jan-30 01:31 267 5 gusting 8 17.2
2015-Jan-30 00:46 266 2 gusting 6 17.8
2015-Jan-30 00:01 17.8
2015-Jan-29 22:46 271 6 gusting 10 17.8
2015-Jan-29 22:31 276 7 gusting 9 17.8
2015-Jan-29 22:16 273 4 gusting 13 17.8
2015-Jan-29 21:46 272 6 gusting 12 17.8
2015-Jan-29 21:16 273 5 gusting 8 18.3
2015-Jan-29 21:01 281 6 gusting 10 18.3
2015-Jan-29 20:46 289 7 gusting 12 18.3
2015-Jan-29 20:31 302 7 gusting 16 18.3
2015-Jan-29 20:16 298 11 gusting 18 18.3
2015-Jan-29 20:01 306 11 gusting 24 18.3
2015-Jan-29 19:46 288 11 gusting 22 18.3
2015-Jan-29 19:16 290 11 gusting 22 19.4
2015-Jan-29 19:01 298 10 gusting 26 19.4
2015-Jan-29 18:31 316 3 gusting 8 18.3
2015-Jan-29 18:16 16.1
2015-Jan-29 18:01 275 16.1
2015-Jan-29 17:46 16.1
2015-Jan-29 17:32 277 0 gusting 5 16.1
2015-Jan-29 17:30 275 16.1
2015-Jan-29 17:01 261 3 gusting 6 16.7
2015-Jan-29 16:46 258 6 gusting 10 17.2
2015-Jan-29 16:31 238 4 gusting 7 18.3
2015-Jan-29 16:16 270 2 gusting 9 20.0
2015-Jan-29 15:31 19.4
2015-Jan-29 15:16 19.4
2015-Jan-29 14:46 251 5 gusting 8 19.4
2015-Jan-29 14:31 251 6 gusting 11 20.6
2015-Jan-29 14:01 18.3
2015-Jan-29 13:46 18.3
2015-Jan-29 13:16 148 0 gusting 4 17.8
2015-Jan-29 12:16 076 1 gusting 5 16.7
2015-Jan-29 11:46 094 17.2
2015-Jan-29 11:31 081 0 gusting 3 16.7
2015-Jan-29 11:16 051 17.8
2015-Jan-29 11:01 211 5 gusting 6 18.3
2015-Jan-29 10:46 258 7 gusting 14 18.3
2015-Jan-29 10:31 214 1 gusting 6 18.3
2015-Jan-29 09:46 239 3 gusting 8 17.2
2015-Jan-29 09:31 287 6 gusting 11 17.2
2015-Jan-29 09:16 292 6 gusting 11 16.7
2015-Jan-29 09:01 293 6 gusting 11 16.7
2015-Jan-29 08:16 271 2 gusting 6 15.6
2015-Jan-29 08:01 275 3 gusting 9 15.0
2015-Jan-29 07:31 274 1 gusting 5 13.9
2015-Jan-29 07:16 288 3 gusting 6 14.4
2015-Jan-29 06:46 298 6 gusting 14 14.4
2015-Jan-29 05:16 8.9
2015-Jan-29 05:01 9.4
2015-Jan-29 04:46 8.3
2015-Jan-29 04:16 9.4
2015-Jan-29 04:01 9.4
2015-Jan-29 03:46 8.9
2015-Jan-29 03:16 7.8
2015-Jan-29 02:16 7.8
2015-Jan-29 02:01 7.2
2015-Jan-29 01:16 7.8
2015-Jan-29 01:01 7.8
2015-Jan-29 00:31 9.4
2015-Jan-29 00:16 9.4
2015-Jan-28 23:31 11.1
2015-Jan-28 23:16 297 10.6
2015-Jan-28 22:46 287 9.4
2015-Jan-28 22:01 8.9
2015-Jan-28 21:46 258 0 gusting 5 10.0
2015-Jan-28 21:01 274 0 gusting 3 11.7
2015-Jan-28 20:46 275 2 gusting 5 12.2
2015-Jan-28 20:16 281 3 gusting 6 12.2
2015-Jan-28 20:01 264 4 gusting 11 12.2
2015-Jan-28 19:46 261 1 gusting 6 12.2
2015-Jan-28 19:31 269 1 gusting 5 12.2
2015-Jan-28 19:16 11.7
2015-Jan-28 19:01 11.7
2015-Jan-28 18:46 11.7
2015-Jan-28 18:31 223 12.2
2015-Jan-28 17:46 12.2
2015-Jan-28 17:31 257 1 gusting 5 12.2
2015-Jan-28 17:16 243 0 gusting 6 12.8
2015-Jan-28 17:01 234 2 gusting 5 13.3
2015-Jan-28 16:46 261 1 gusting 2 13.9
2015-Jan-28 16:01 218 3 gusting 7 14.4
2015-Jan-28 15:31 221 3 gusting 11 14.4
2015-Jan-28 15:16 224 2 gusting 6 15.0
2015-Jan-28 14:16 225 4 gusting 13 15.0
2015-Jan-28 13:31 194 4 gusting 9 14.4
2015-Jan-28 13:16 168 3 gusting 11 14.4
2015-Jan-28 12:46 127 14.4
2015-Jan-28 12:16 097 0 gusting 3 13.9
2015-Jan-28 11:46 119 14.4
2015-Jan-28 11:31 14.4
2015-Jan-28 11:16 082 0 gusting 4 14.4
2015-Jan-28 11:01 082 13.9